createdAt,value
2022-11-03T00:00:30.816Z,20
2022-11-03T00:01:30.802Z,20
2022-11-03T00:02:30.809Z,20
2022-11-03T00:03:30.779Z,20
2022-11-03T00:04:30.775Z,20
2022-11-03T00:05:30.777Z,20
2022-11-03T00:06:30.753Z,20
2022-11-03T00:07:30.744Z,20
2022-11-03T00:08:30.754Z,20
2022-11-03T00:09:30.715Z,20
2022-11-03T00:10:30.712Z,20
2022-11-03T00:11:30.697Z,20
2022-11-03T00:12:30.689Z,20
2022-11-03T00:13:30.683Z,20
2022-11-03T00:14:30.667Z,20
2022-11-03T00:15:30.661Z,20
2022-11-03T00:16:30.644Z,20
2022-11-03T00:17:30.671Z,20
2022-11-03T00:18:30.623Z,20
2022-11-03T00:19:30.611Z,20
2022-11-03T00:20:30.601Z,20
2022-11-03T00:21:30.589Z,20
2022-11-03T00:22:30.581Z,20
2022-11-03T00:23:30.583Z,20
2022-11-03T00:24:30.564Z,20
2022-11-03T00:25:30.552Z,20
2022-11-03T00:26:30.542Z,20
2022-11-03T00:27:30.528Z,20
2022-11-03T00:28:30.518Z,20
2022-11-03T00:29:30.504Z,20
2022-11-03T00:30:30.496Z,20
2022-11-03T00:31:30.493Z,20
2022-11-03T00:32:30.474Z,20
2022-11-03T00:33:30.463Z,20
2022-11-03T00:34:30.457Z,20
2022-11-03T00:35:30.445Z,20
2022-11-03T00:36:30.438Z,20
2022-11-03T00:37:30.419Z,20
2022-11-03T00:38:30.410Z,20
2022-11-03T00:39:30.422Z,20
2022-11-03T00:40:30.409Z,20
2022-11-03T00:41:30.392Z,20
2022-11-03T00:42:30.374Z,20
2022-11-03T00:43:30.380Z,20
2022-11-03T00:44:30.347Z,20
2022-11-03T00:45:30.335Z,20
2022-11-03T00:46:30.322Z,20
2022-11-03T00:47:30.317Z,20
2022-11-03T00:48:30.304Z,20
2022-11-03T00:49:30.293Z,20
2022-11-03T00:50:30.280Z,20
2022-11-03T00:51:30.269Z,20
2022-11-03T00:52:30.277Z,20
2022-11-03T00:53:30.252Z,20
2022-11-03T00:54:30.241Z,20
2022-11-03T00:55:30.230Z,20
2022-11-03T00:56:30.295Z,20
2022-11-03T00:57:30.216Z,20
2022-11-03T00:58:30.202Z,20
2022-11-03T00:59:30.184Z,20
2022-11-03T01:00:30.178Z,20
2022-11-03T01:01:30.167Z,20
2022-11-03T01:02:30.157Z,20
2022-11-03T01:03:30.142Z,20
2022-11-03T01:04:30.143Z,20
2022-11-03T01:05:30.121Z,20
2022-11-03T01:06:30.110Z,20
2022-11-03T01:07:30.099Z,20
2022-11-03T01:08:30.097Z,20
2022-11-03T01:09:30.083Z,20
2022-11-03T01:10:30.066Z,20
2022-11-03T01:11:30.056Z,20
2022-11-03T01:12:30.052Z,20
2022-11-03T01:13:30.036Z,20
2022-11-03T01:14:30.025Z,20
2022-11-03T01:15:30.022Z,20
2022-11-03T01:16:30.007Z,20
2022-11-03T01:17:29.992Z,20
2022-11-03T01:18:29.985Z,20
2022-11-03T01:19:29.982Z,20
2022-11-03T01:20:29.959Z,20
2022-11-03T01:21:29.950Z,20
2022-11-03T01:22:29.934Z,20
2022-11-03T01:23:29.932Z,20
2022-11-03T01:24:29.914Z,20
2022-11-03T01:25:29.903Z,20
2022-11-03T01:26:29.898Z,20
2022-11-03T01:27:29.882Z,20
2022-11-03T01:28:29.892Z,20
2022-11-03T01:29:29.862Z,20
2022-11-03T01:30:29.848Z,20
2022-11-03T01:31:29.838Z,20
2022-11-03T01:32:29.831Z,20
2022-11-03T01:33:29.826Z,20
2022-11-03T01:34:29.808Z,20
2022-11-03T01:35:29.799Z,20
2022-11-03T01:36:29.788Z,20
2022-11-03T01:37:29.778Z,20
2022-11-03T01:38:29.766Z,20
2022-11-03T01:39:29.767Z,20
2022-11-03T01:40:29.755Z,20
2022-11-03T01:41:29.744Z,20
2022-11-03T01:42:29.749Z,20
2022-11-03T01:43:29.726Z,20
2022-11-03T01:44:29.713Z,20
2022-11-03T01:45:29.718Z,20
2022-11-03T01:46:29.685Z,20
2022-11-03T01:47:29.669Z,20
2022-11-03T01:48:29.658Z,20
2022-11-03T01:49:29.648Z,20
2022-11-03T01:50:29.639Z,20
2022-11-03T01:51:29.625Z,20
2022-11-03T01:52:29.617Z,20
2022-11-03T01:53:29.607Z,20
2022-11-03T01:54:29.590Z,20
2022-11-03T01:55:29.583Z,20
2022-11-03T01:56:29.580Z,20
2022-11-03T01:57:29.566Z,20
2022-11-03T01:58:29.554Z,20
2022-11-03T01:59:29.543Z,20
2022-11-03T02:00:29.536Z,20
2022-11-03T02:01:29.522Z,20
2022-11-03T02:02:29.506Z,20
2022-11-03T02:03:29.501Z,20
2022-11-03T02:04:29.512Z,20
2022-11-03T02:05:29.481Z,20
2022-11-03T02:06:29.465Z,20
2022-11-03T02:07:29.463Z,20
2022-11-03T02:08:29.450Z,20
2022-11-03T02:09:29.432Z,20
2022-11-03T02:10:29.431Z,20
2022-11-03T02:11:29.413Z,20
2022-11-03T02:12:29.403Z,20
2022-11-03T02:13:29.394Z,20
2022-11-03T02:14:29.384Z,20
2022-11-03T02:15:29.367Z,20
2022-11-03T02:16:29.357Z,20
2022-11-03T02:17:29.350Z,20
2022-11-03T02:18:29.342Z,20
2022-11-03T02:19:29.326Z,24
2022-11-03T02:20:29.315Z,20
2022-11-03T02:21:29.313Z,20
2022-11-03T02:22:29.297Z,20
2022-11-03T02:23:29.283Z,20
2022-11-03T02:24:29.281Z,20
2022-11-03T02:25:29.266Z,20
2022-11-03T02:26:29.256Z,20
2022-11-03T02:27:29.246Z,20
2022-11-03T02:28:29.229Z,20
2022-11-03T02:29:29.223Z,20
2022-11-03T02:30:29.213Z,20
2022-11-03T02:31:29.202Z,20
2022-11-03T02:32:29.187Z,20
2022-11-03T02:33:29.178Z,20
2022-11-03T02:34:29.171Z,20
2022-11-03T02:35:29.154Z,20
2022-11-03T02:36:29.151Z,20
2022-11-03T02:37:29.136Z,20
2022-11-03T02:38:29.125Z,20
2022-11-03T02:39:29.118Z,20
2022-11-03T02:40:29.105Z,20
2022-11-03T02:41:29.095Z,20
2022-11-03T02:42:29.101Z,20
2022-11-03T02:43:29.073Z,20
2022-11-03T02:44:29.060Z,20
2022-11-03T02:45:29.056Z,20
2022-11-03T02:46:29.048Z,20
2022-11-03T02:47:29.030Z,20
2022-11-03T02:48:29.024Z,20
2022-11-03T02:49:29.033Z,20
2022-11-03T02:50:28.992Z,20
2022-11-03T02:51:28.989Z,20
2022-11-03T02:52:28.974Z,20
2022-11-03T02:53:28.962Z,20
2022-11-03T02:54:28.955Z,20
2022-11-03T02:55:28.941Z,20
2022-11-03T02:56:28.941Z,20
2022-11-03T02:57:28.919Z,20
2022-11-03T02:58:28.923Z,20
2022-11-03T02:59:28.906Z,20
2022-11-03T03:00:28.891Z,20
2022-11-03T03:01:28.883Z,20
2022-11-03T03:02:28.870Z,20
2022-11-03T03:03:28.853Z,20
2022-11-03T03:04:28.846Z,20
2022-11-03T03:05:28.839Z,20
2022-11-03T03:06:28.827Z,20
2022-11-03T03:07:28.820Z,20
2022-11-03T03:08:28.805Z,20
2022-11-03T03:09:28.822Z,20
2022-11-03T03:10:28.798Z,20
2022-11-03T03:11:28.785Z,20
2022-11-03T03:12:28.759Z,20
2022-11-03T03:13:28.755Z,20
2022-11-03T03:14:28.738Z,20
2022-11-03T03:15:28.731Z,20
2022-11-03T03:16:28.724Z,20
2022-11-03T03:17:28.712Z,20
2022-11-03T03:18:28.702Z,20
2022-11-03T03:19:28.686Z,20
2022-11-03T03:20:28.709Z,20
2022-11-03T03:21:28.665Z,20
2022-11-03T03:22:28.660Z,20
2022-11-03T03:23:28.652Z,20
2022-11-03T03:24:28.631Z,20
2022-11-03T03:25:28.629Z,20
2022-11-03T03:26:28.619Z,20
2022-11-03T03:27:28.606Z,20
2022-11-03T03:28:28.611Z,20
2022-11-03T03:29:28.583Z,20
2022-11-03T03:30:28.575Z,20
2022-11-03T03:31:28.565Z,20
2022-11-03T03:32:28.549Z,20
2022-11-03T03:34:28.536Z,20
2022-11-03T03:35:28.519Z,20
2022-11-03T03:36:28.502Z,20
2022-11-03T03:37:28.749Z,20
2022-11-03T03:38:28.477Z,20
2022-11-03T03:39:28.472Z,20
2022-11-03T03:40:28.459Z,20
2022-11-03T03:41:28.450Z,20
2022-11-03T03:42:28.441Z,20
2022-11-03T03:43:28.426Z,20
2022-11-03T03:44:28.417Z,20
2022-11-03T03:45:28.406Z,20
2022-11-03T03:46:28.394Z,20
2022-11-03T03:47:28.408Z,20
2022-11-03T03:48:28.371Z,20
2022-11-03T03:49:28.366Z,20
2022-11-03T03:50:28.350Z,20
2022-11-03T03:51:28.344Z,20
2022-11-03T03:52:28.326Z,20
2022-11-03T03:53:28.317Z,20
2022-11-03T03:54:28.316Z,20
2022-11-03T03:55:28.296Z,20
2022-11-03T03:56:28.283Z,20
2022-11-03T03:57:28.280Z,20
2022-11-03T03:58:28.275Z,20
2022-11-03T03:59:28.269Z,20
2022-11-03T04:00:28.242Z,24
2022-11-03T04:01:28.238Z,24
2022-11-03T04:02:28.226Z,24
2022-11-03T04:03:28.210Z,24
2022-11-03T04:04:28.200Z,24
2022-11-03T04:05:28.196Z,24
2022-11-03T04:06:28.179Z,24
2022-11-03T04:07:28.172Z,24
2022-11-03T04:08:28.161Z,24
2022-11-03T04:09:28.145Z,24
2022-11-03T04:10:28.135Z,24
2022-11-03T04:11:28.127Z,24
2022-11-03T04:12:28.116Z,24
2022-11-03T04:13:28.110Z,24
2022-11-03T04:14:28.098Z,24
2022-11-03T04:15:28.087Z,24
2022-11-03T04:16:28.072Z,24
2022-11-03T04:17:28.060Z,24
2022-11-03T04:18:28.061Z,24
2022-11-03T04:19:28.049Z,24
2022-11-03T04:20:28.030Z,24
2022-11-03T04:21:28.018Z,24
2022-11-03T04:22:28.010Z,24
2022-11-03T04:23:28.001Z,24
2022-11-03T04:24:27.987Z,24
2022-11-03T04:25:27.979Z,24
2022-11-03T04:26:27.966Z,24
2022-11-03T04:27:27.959Z,28
2022-11-03T04:28:27.944Z,24
2022-11-03T04:29:27.938Z,24
2022-11-03T04:30:27.923Z,24
2022-11-03T04:31:27.919Z,24
2022-11-03T04:32:27.910Z,24
2022-11-03T04:33:27.897Z,24
2022-11-03T04:34:27.887Z,24
2022-11-03T04:35:27.875Z,24
2022-11-03T04:36:27.862Z,24
2022-11-03T04:37:27.848Z,24
2022-11-03T04:38:27.854Z,24
2022-11-03T04:39:27.839Z,24
2022-11-03T04:40:27.823Z,24
2022-11-03T04:41:27.803Z,24
2022-11-03T04:42:27.806Z,24
2022-11-03T04:43:27.787Z,24
2022-11-03T04:44:27.777Z,24
2022-11-03T04:45:27.774Z,24
2022-11-03T04:46:27.754Z,24
2022-11-03T04:47:27.743Z,28
2022-11-03T04:48:27.731Z,24
2022-11-03T04:49:27.722Z,24
2022-11-03T04:50:27.708Z,24
2022-11-03T04:51:27.704Z,24
2022-11-03T04:52:27.693Z,24
2022-11-03T04:53:27.682Z,24
2022-11-03T04:54:27.662Z,24
2022-11-03T04:55:27.680Z,24
2022-11-03T04:56:27.647Z,24
2022-11-03T04:57:27.636Z,24
2022-11-03T04:58:27.623Z,24
2022-11-03T04:59:27.613Z,24
2022-11-03T05:00:27.604Z,24
2022-11-03T05:01:27.602Z,24
2022-11-03T05:02:27.578Z,28
2022-11-03T05:03:27.573Z,28
2022-11-03T05:04:27.562Z,24
2022-11-03T05:05:27.545Z,24
2022-11-03T05:06:27.541Z,24
2022-11-03T05:07:27.525Z,24
2022-11-03T05:08:27.548Z,24
2022-11-03T05:09:27.507Z,24
2022-11-03T05:10:27.493Z,24
2022-11-03T05:11:27.479Z,24
2022-11-03T05:12:27.471Z,24
2022-11-03T05:13:30.183Z,24
2022-11-03T05:14:27.450Z,24
2022-11-03T05:15:27.445Z,28
2022-11-03T05:16:27.432Z,24
2022-11-03T05:17:27.415Z,24
2022-11-03T05:18:27.404Z,24
2022-11-03T05:19:27.396Z,24
2022-11-03T05:20:27.388Z,24
2022-11-03T05:21:27.378Z,24
2022-11-03T05:22:27.366Z,28
2022-11-03T05:23:27.354Z,24
2022-11-03T05:24:27.350Z,24
2022-11-03T05:25:27.332Z,24
2022-11-03T05:26:27.329Z,24
2022-11-03T05:27:27.311Z,24
2022-11-03T05:28:27.301Z,24
2022-11-03T05:29:27.290Z,24
2022-11-03T05:30:27.273Z,24
2022-11-03T05:31:27.264Z,28
2022-11-03T05:32:27.257Z,28
2022-11-03T05:33:27.258Z,24
2022-11-03T05:34:27.229Z,24
2022-11-03T05:35:27.224Z,24
2022-11-03T05:36:27.206Z,28
2022-11-03T05:37:27.197Z,24
2022-11-03T05:38:27.194Z,24
2022-11-03T05:39:27.182Z,24
2022-11-03T05:40:27.167Z,24
2022-11-03T05:41:27.157Z,24
2022-11-03T05:42:27.147Z,24
2022-11-03T05:43:27.130Z,24
2022-11-03T05:44:27.124Z,24
2022-11-03T05:45:27.116Z,24
2022-11-03T05:46:27.105Z,24
2022-11-03T05:47:27.087Z,24
2022-11-03T05:48:27.084Z,24
2022-11-03T05:49:27.072Z,24
2022-11-03T05:50:27.060Z,28
2022-11-03T05:51:27.051Z,28
2022-11-03T05:52:27.041Z,28
2022-11-03T05:53:27.027Z,28
2022-11-03T05:54:27.015Z,24
2022-11-03T05:55:27.006Z,28
2022-11-03T05:56:26.994Z,28
2022-11-03T05:57:26.984Z,28
2022-11-03T05:58:26.975Z,32
2022-11-03T05:59:26.982Z,28
2022-11-03T06:00:26.949Z,32
2022-11-03T06:01:26.948Z,28
2022-11-03T06:02:26.928Z,32
2022-11-03T06:03:26.923Z,36
2022-11-03T06:04:26.912Z,36
2022-11-03T06:05:26.914Z,28
2022-11-03T06:06:26.885Z,28
2022-11-03T06:07:26.872Z,32
2022-11-03T06:08:26.867Z,36
2022-11-03T06:09:26.862Z,36
2022-11-03T06:10:26.841Z,44
2022-11-03T06:11:26.854Z,44
2022-11-03T06:12:26.848Z,48
2022-11-03T06:13:26.810Z,56
2022-11-03T06:14:26.808Z,60
2022-11-03T06:15:26.795Z,64
2022-11-03T06:16:26.782Z,68
2022-11-03T06:17:26.770Z,76
2022-11-03T06:18:26.760Z,84
2022-11-03T06:19:26.753Z,88
2022-11-03T06:20:26.737Z,96
2022-11-03T06:21:26.759Z,104
2022-11-03T06:22:26.729Z,108
2022-11-03T06:23:26.738Z,116
2022-11-03T06:24:26.718Z,120
2022-11-03T06:25:26.686Z,128
2022-11-03T06:26:26.673Z,132
2022-11-03T06:27:26.664Z,140
2022-11-03T06:28:26.653Z,136
2022-11-03T06:29:26.641Z,144
2022-11-03T06:30:26.635Z,152
2022-11-03T06:31:26.618Z,164
2022-11-03T06:32:26.611Z,176
2022-11-03T06:33:26.597Z,188
2022-11-03T06:34:26.588Z,200
2022-11-03T06:35:26.571Z,212
2022-11-03T06:36:26.565Z,224
2022-11-03T06:37:26.555Z,240
2022-11-03T06:38:26.541Z,256
2022-11-03T06:39:26.535Z,280
2022-11-03T06:40:26.520Z,296
2022-11-03T06:41:26.516Z,312
2022-11-03T06:42:26.495Z,332
2022-11-03T06:43:26.490Z,348
2022-11-03T06:44:26.477Z,368
2022-11-03T06:45:26.466Z,396
2022-11-03T06:46:26.451Z,420
2022-11-03T06:47:26.449Z,452
2022-11-03T06:48:26.471Z,484
2022-11-03T06:49:26.421Z,508
2022-11-03T06:50:26.411Z,536
2022-11-03T06:51:26.405Z,564
2022-11-03T06:52:26.392Z,596
2022-11-03T06:53:26.382Z,628
2022-11-03T06:54:26.377Z,652
2022-11-03T06:55:26.361Z,676
2022-11-03T06:56:26.371Z,700
2022-11-03T06:57:26.342Z,720
2022-11-03T06:58:26.332Z,736
2022-11-03T06:59:26.320Z,760
2022-11-03T07:00:26.303Z,780
2022-11-03T07:01:26.309Z,804
2022-11-03T07:02:26.291Z,832
2022-11-03T07:03:26.278Z,864
2022-11-03T07:04:26.291Z,888
2022-11-03T07:05:26.255Z,920
2022-11-03T07:06:26.250Z,952
2022-11-03T07:07:26.239Z,976
2022-11-03T07:08:26.233Z,996
2022-11-03T07:09:26.205Z,1016
2022-11-03T07:10:26.197Z,1044
2022-11-03T07:11:26.191Z,1072
2022-11-03T07:12:26.174Z,1100
2022-11-03T07:13:26.181Z,1120
2022-11-03T07:14:26.162Z,1156
2022-11-03T07:15:26.162Z,1192
2022-11-03T07:16:26.138Z,1232
2022-11-03T07:17:26.133Z,1284
2022-11-03T07:18:26.114Z,1348
2022-11-03T07:19:26.110Z,1384
2022-11-03T07:20:26.108Z,1444
2022-11-03T07:21:26.076Z,1500
2022-11-03T07:22:26.074Z,1548
2022-11-03T07:23:26.056Z,1600
2022-11-03T07:24:26.049Z,1656
2022-11-03T07:25:26.039Z,1716
2022-11-03T07:26:26.068Z,1776
2022-11-03T07:27:26.037Z,1848
2022-11-03T07:28:26.002Z,1900
2022-11-03T07:29:26.001Z,1952
2022-11-03T07:30:26.024Z,1992
2022-11-03T07:31:25.971Z,2024
2022-11-03T07:32:25.991Z,2052
2022-11-03T07:33:26.042Z,2076
2022-11-03T07:34:27.115Z,2108
2022-11-03T07:35:26.085Z,2140
2022-11-03T07:36:25.938Z,2192
2022-11-03T07:37:25.906Z,2256
2022-11-03T07:38:25.981Z,2324
2022-11-03T07:39:25.892Z,2384
2022-11-03T07:40:25.877Z,2440
2022-11-03T07:41:25.920Z,2520
2022-11-03T07:42:26.886Z,2580
2022-11-03T07:43:25.858Z,2636
2022-11-03T07:44:25.831Z,2692
2022-11-03T07:45:25.877Z,2748
2022-11-03T07:46:25.893Z,2780
2022-11-03T07:47:25.827Z,2816
2022-11-03T07:48:25.843Z,2860
2022-11-03T07:49:25.782Z,2884
2022-11-03T07:50:25.759Z,2888
2022-11-03T07:51:25.770Z,2908
2022-11-03T07:52:25.739Z,2924
2022-11-03T07:53:25.734Z,2960
2022-11-03T07:54:25.741Z,2992
2022-11-03T07:55:25.707Z,3032
2022-11-03T07:56:25.716Z,3068
2022-11-03T07:57:25.681Z,3064
2022-11-03T07:58:25.947Z,3052
2022-11-03T07:59:25.751Z,3036
2022-11-03T08:00:25.679Z,3036
2022-11-03T08:10:01.004Z,3388
2022-11-03T08:11:01.821Z,3448
2022-11-03T08:12:00.805Z,3516
2022-11-03T08:13:01.208Z,3592
2022-11-03T08:14:00.776Z,3656
2022-11-03T08:15:00.773Z,3652
2022-11-03T08:16:00.725Z,3648
2022-11-03T08:17:00.737Z,3648
2022-11-03T08:18:00.717Z,3656
2022-11-03T08:19:00.714Z,3692
2022-11-03T08:20:00.684Z,3736
2022-11-03T08:21:00.710Z,3764
2022-11-03T08:22:00.735Z,3776
2022-11-03T08:23:00.664Z,3812
2022-11-03T08:24:00.671Z,3868
2022-11-03T08:25:00.669Z,3916
2022-11-03T08:26:00.831Z,3932
2022-11-03T08:27:00.634Z,3952
2022-11-03T08:28:00.689Z,4044
2022-11-03T08:29:00.745Z,4100
2022-11-03T08:30:00.664Z,4192
2022-11-03T08:31:00.606Z,4384
2022-11-03T08:32:00.680Z,4528
2022-11-03T08:33:01.572Z,4656
2022-11-03T08:34:00.580Z,4600
2022-11-03T08:35:01.764Z,4652
2022-11-03T08:36:00.585Z,4712
2022-11-03T08:37:00.534Z,4796
2022-11-03T08:38:00.574Z,4832
2022-11-03T08:39:01.489Z,4872
2022-11-03T08:40:00.512Z,5032
2022-11-03T08:41:00.484Z,5020
2022-11-03T08:42:00.529Z,5032
2022-11-03T08:43:00.653Z,4980
2022-11-03T08:44:00.498Z,4864
2022-11-03T08:45:01.506Z,4908
2022-11-03T08:46:00.506Z,4880
2022-11-03T08:47:00.422Z,4880
2022-11-03T08:48:01.395Z,4780
2022-11-03T08:49:00.402Z,4776
2022-11-03T08:50:01.386Z,4840
2022-11-03T08:51:00.359Z,4948
2022-11-03T08:52:00.474Z,5044
2022-11-03T08:53:00.357Z,5220
2022-11-03T08:54:00.357Z,5220
2022-11-03T08:55:00.321Z,5216
2022-11-03T08:56:00.312Z,5284
2022-11-03T08:57:00.398Z,5200
2022-11-03T08:58:01.318Z,5092
2022-11-03T08:59:01.329Z,5132
2022-11-03T09:00:00.282Z,5348
2022-11-03T09:01:00.367Z,5288
2022-11-03T09:02:00.302Z,5316
2022-11-03T09:03:00.400Z,5196
2022-11-03T09:04:00.266Z,5068
2022-11-03T09:05:00.216Z,5012
2022-11-03T09:06:00.222Z,4936
2022-11-03T09:07:00.212Z,4892
2022-11-03T09:10:00.158Z,4744
2022-11-03T09:11:00.161Z,4608
2022-11-03T09:12:00.138Z,4460
2022-11-03T09:13:00.124Z,4352
2022-11-03T09:14:00.120Z,4180
2022-11-03T09:15:00.126Z,4072
2022-11-03T09:16:00.128Z,4024
2022-11-03T09:17:00.100Z,3920
2022-11-03T09:18:00.113Z,3836
2022-11-03T09:19:00.061Z,3760
2022-11-03T09:20:00.053Z,3688
2022-11-03T09:21:00.070Z,3652
2022-11-03T09:22:00.058Z,3612
2022-11-03T09:23:00.031Z,3580
2022-11-03T09:24:00.022Z,3576
2022-11-03T09:25:00.037Z,3516
2022-11-03T09:26:00.025Z,3424
2022-11-03T09:27:00.022Z,3328
2022-11-03T09:28:00.015Z,3376
2022-11-03T09:29:00.035Z,3336
2022-11-03T09:29:59.947Z,3360
2022-11-03T09:30:59.938Z,3460
2022-11-03T09:32:00.110Z,3588
2022-11-03T09:32:59.934Z,3780
2022-11-03T09:33:59.943Z,3968
2022-11-03T09:34:59.902Z,4124
2022-11-03T09:35:59.948Z,4308
2022-11-03T09:36:59.900Z,4508
2022-11-03T09:37:59.915Z,4708
2022-11-03T09:39:00.952Z,4880
2022-11-03T09:39:59.854Z,4980
2022-11-03T09:40:59.843Z,4992
2022-11-03T09:41:59.826Z,4984
2022-11-03T09:42:59.817Z,4996
2022-11-03T09:43:59.797Z,5040
2022-11-03T09:44:59.838Z,5148
2022-11-03T09:45:59.778Z,5260
2022-11-03T09:46:59.770Z,5420
2022-11-03T09:47:59.763Z,5608
2022-11-03T09:48:59.751Z,5788
2022-11-03T09:49:59.798Z,5940
2022-11-03T09:50:59.718Z,6232
2022-11-03T09:51:59.706Z,6388
2022-11-03T09:52:59.706Z,6612
2022-11-03T09:53:59.685Z,6668
2022-11-03T09:54:59.678Z,6784
2022-11-03T09:55:59.685Z,6856
2022-11-03T09:56:59.654Z,6932
2022-11-03T09:57:59.673Z,6952
2022-11-03T09:58:59.653Z,6980
2022-11-03T09:59:59.624Z,7020
2022-11-03T10:00:59.616Z,6972
2022-11-03T10:01:59.627Z,6904
2022-11-03T10:02:59.596Z,6924
2022-11-03T10:03:59.582Z,6832
2022-11-03T10:04:59.569Z,6820
2022-11-03T10:05:59.560Z,6776
2022-11-03T10:06:59.558Z,6692
2022-11-03T10:07:59.569Z,6628
2022-11-03T10:08:59.529Z,6504
2022-11-03T10:09:59.532Z,6396
2022-11-03T10:10:59.515Z,6240
2022-11-03T10:11:59.499Z,6096
2022-11-03T10:12:59.488Z,5924
2022-11-03T10:13:59.476Z,5828
2022-11-03T10:14:59.462Z,5776
2022-11-03T10:15:59.456Z,5752
2022-11-03T10:16:59.442Z,5720
2022-11-03T10:17:59.430Z,5656
2022-11-03T10:18:59.448Z,5548
2022-11-03T10:19:59.428Z,5472
2022-11-03T10:20:59.514Z,5388
2022-11-03T10:21:59.384Z,5340
2022-11-03T10:22:59.385Z,5328
2022-11-03T10:23:59.375Z,5336
2022-11-03T10:24:59.405Z,5368
2022-11-03T10:25:59.377Z,5392
2022-11-03T10:26:59.353Z,5408
2022-11-03T10:27:59.332Z,5376
2022-11-03T10:28:59.351Z,5320
2022-11-03T10:29:59.307Z,5236
2022-11-03T10:30:59.307Z,5168
2022-11-03T10:31:59.284Z,5140
2022-11-03T10:32:59.271Z,5000
2022-11-03T10:33:59.359Z,4944
2022-11-03T10:35:00.318Z,4908
2022-11-03T10:35:59.240Z,4844
2022-11-03T10:36:59.228Z,4748
2022-11-03T10:37:59.214Z,4644
2022-11-03T10:38:59.252Z,4544
2022-11-03T10:39:59.240Z,4440
2022-11-03T10:40:59.186Z,4348
2022-11-03T10:41:59.174Z,4320
2022-11-03T10:42:59.174Z,4324
2022-11-03T10:43:59.217Z,4352
2022-11-03T10:44:59.153Z,4384
2022-11-03T10:45:59.163Z,4424
2022-11-03T10:46:59.130Z,4436
2022-11-03T10:47:59.117Z,4424
2022-11-03T10:48:59.106Z,4592
2022-11-03T10:49:59.086Z,4424
2022-11-03T10:50:59.085Z,4412
2022-11-03T10:52:00.072Z,4476
2022-11-03T10:52:59.056Z,4524
2022-11-03T10:53:59.045Z,4552
2022-11-03T10:54:59.068Z,4560
2022-11-03T10:55:59.031Z,4536
2022-11-03T10:56:59.019Z,4496
2022-11-03T10:57:59.008Z,4424
2022-11-03T10:59:58.989Z,4160
2022-11-03T11:00:58.972Z,4028
2022-11-03T11:01:58.987Z,3904
2022-11-03T11:02:58.958Z,3780
2022-11-03T11:03:58.948Z,3656
2022-11-03T11:04:58.930Z,3604
2022-11-03T11:05:58.948Z,3564
2022-11-03T11:06:58.919Z,3556
2022-11-03T11:07:58.916Z,3568
2022-11-03T11:08:58.884Z,3652
2022-11-03T11:09:58.882Z,3784
2022-11-03T11:10:58.871Z,4040
2022-11-03T11:11:58.898Z,4356
2022-11-03T11:12:58.859Z,4688
2022-11-03T11:13:58.831Z,4900
2022-11-03T11:14:58.817Z,5060
2022-11-03T11:15:58.829Z,5160
2022-11-03T11:16:58.803Z,5232
2022-11-03T11:17:58.789Z,5248
2022-11-03T11:18:58.793Z,5348
2022-11-03T11:19:58.805Z,5492
2022-11-03T11:20:58.757Z,6060
2022-11-03T11:21:58.744Z,6488
2022-11-03T11:22:58.740Z,6880
2022-11-03T11:23:58.732Z,6656
2022-11-03T11:24:58.713Z,7088
2022-11-03T11:25:58.705Z,8076
2022-11-03T11:26:58.769Z,7632
2022-11-03T11:30:00.999Z,14024
2022-11-03T11:31:01.027Z,15360
2022-11-03T11:32:01.077Z,14620
2022-11-03T11:33:00.983Z,12696
2022-11-03T11:34:00.875Z,11708
2022-11-03T11:35:00.821Z,12876
2022-11-03T11:36:00.843Z,10796
2022-11-03T11:37:00.806Z,10792
2022-11-03T11:38:00.804Z,12184
2022-11-03T11:39:00.808Z,11580
2022-11-03T11:40:00.838Z,10020
2022-11-03T11:41:00.763Z,9012
2022-11-03T11:42:00.753Z,8228
2022-11-03T11:43:00.725Z,7352
2022-11-03T11:44:00.732Z,6888
2022-11-03T11:45:00.805Z,6680
2022-11-03T11:46:01.706Z,6560
2022-11-03T11:47:00.881Z,5816
2022-11-03T11:48:01.152Z,5432
2022-11-03T11:49:00.680Z,5144
2022-11-03T11:50:00.760Z,5060
2022-11-03T11:51:00.884Z,5028
2022-11-03T11:52:01.009Z,5000
2022-11-03T11:53:00.966Z,4920
2022-11-03T11:54:00.777Z,4956
2022-11-03T11:55:01.986Z,4916
2022-11-03T11:56:00.981Z,5128
2022-11-03T11:57:00.780Z,4972
2022-11-03T11:58:00.668Z,4924
2022-11-03T11:59:00.561Z,5144
2022-11-03T12:00:00.631Z,5072
2022-11-03T12:01:01.700Z,5084
2022-11-03T12:02:00.652Z,5048
2022-11-03T12:03:00.552Z,5088
2022-11-03T12:04:00.973Z,5068
2022-11-03T12:05:00.672Z,5008
2022-11-03T12:06:01.521Z,5084
2022-11-03T12:07:00.557Z,4992
2022-11-03T12:08:01.486Z,4884
2022-11-03T12:09:00.465Z,4860
2022-11-03T12:10:00.467Z,4808
2022-11-03T12:11:00.475Z,4772
2022-11-03T12:12:00.877Z,4740
2022-11-03T12:13:00.635Z,4636
2022-11-03T12:14:00.862Z,4672
2022-11-03T12:15:00.561Z,4772
2022-11-03T12:16:01.389Z,4852
2022-11-03T12:17:00.470Z,4848
2022-11-03T12:18:00.456Z,4628
2022-11-03T12:19:00.371Z,4444
2022-11-03T12:20:00.363Z,4280
2022-11-03T12:21:00.414Z,4176
2022-11-03T12:22:00.318Z,4092
2022-11-03T12:23:00.417Z,4004
2022-11-03T12:24:00.331Z,3920
2022-11-03T12:25:00.606Z,3880
2022-11-03T12:26:00.359Z,3764
2022-11-03T12:27:00.524Z,3640
2022-11-03T12:28:00.292Z,3512
2022-11-03T12:29:00.264Z,3408
2022-11-03T12:30:01.315Z,3288
2022-11-03T12:32:01.327Z,3112
2022-11-03T12:33:00.296Z,3076
2022-11-03T12:34:00.306Z,3044
2022-11-03T12:35:01.214Z,3012
2022-11-03T12:36:00.174Z,3012
2022-11-03T12:37:00.245Z,3008
2022-11-03T12:38:01.174Z,3024
2022-11-03T12:39:00.500Z,3052
2022-11-03T12:40:00.237Z,3088
2022-11-03T12:41:00.530Z,3120
2022-11-03T12:42:00.263Z,3156
2022-11-03T12:43:01.366Z,3200
2022-11-03T12:44:00.417Z,3228
2022-11-03T12:45:00.234Z,3220
2022-11-03T12:46:00.591Z,3208
2022-11-03T12:47:00.781Z,3156
2022-11-03T12:48:00.142Z,3116
2022-11-03T12:49:01.224Z,3064
2022-11-03T12:50:01.281Z,2984
2022-11-03T12:51:00.458Z,2912
2022-11-03T12:52:01.190Z,2820
2022-11-03T12:53:02.841Z,2744
2022-11-03T12:54:00.075Z,2704
2022-11-03T13:04:50.806Z,2188
2022-11-03T13:05:50.857Z,2112
2022-11-03T13:06:50.753Z,2056
2022-11-03T13:07:51.629Z,1984
2022-11-03T13:08:50.687Z,1932
2022-11-03T13:09:50.627Z,1892
2022-11-03T13:10:50.748Z,1892
2022-11-03T13:11:51.672Z,1892
2022-11-03T13:12:50.798Z,1960
2022-11-03T13:13:50.601Z,2044
2022-11-03T13:14:51.586Z,2208
2022-11-03T13:15:51.791Z,2448
2022-11-03T13:16:50.696Z,2796
2022-11-03T13:17:51.506Z,3304
2022-11-03T13:18:50.590Z,3996
2022-11-03T13:19:51.580Z,4860
2022-11-03T13:20:51.626Z,5872
2022-11-03T13:21:50.431Z,6940
2022-11-03T13:22:50.845Z,7836
2022-11-03T13:23:50.397Z,8752
2022-11-03T13:24:50.588Z,8916
2022-11-03T13:25:50.499Z,9104
2022-11-03T13:26:50.464Z,8788
2022-11-03T13:27:51.775Z,8052
2022-11-03T13:28:50.495Z,7300
2022-11-03T13:29:50.475Z,6488
2022-11-03T13:30:50.510Z,5848
2022-11-03T13:31:50.353Z,5288
2022-11-03T13:32:50.412Z,5212
2022-11-03T13:33:50.356Z,4948
2022-11-03T13:34:51.667Z,4548
2022-11-03T13:35:50.315Z,4284
2022-11-03T13:36:51.289Z,4548
2022-11-03T13:37:51.316Z,4808
2022-11-03T13:38:51.277Z,5008
2022-11-03T13:39:51.278Z,5156
2022-11-03T13:40:50.427Z,5152
2022-11-03T13:41:50.248Z,5160
2022-11-03T13:42:51.324Z,5212
2022-11-03T13:43:50.386Z,5152
2022-11-03T13:44:50.310Z,5220
2022-11-03T13:45:51.219Z,4908
2022-11-03T13:46:50.171Z,4664
2022-11-03T13:48:08.940Z,4368
2022-11-03T13:48:50.367Z,3972
2022-11-03T13:49:50.362Z,3980
2022-11-03T13:50:50.237Z,3992
2022-11-03T13:51:50.187Z,3832
2022-11-03T13:52:50.187Z,3616
2022-11-03T13:55:51.215Z,2652
2022-11-03T14:16:01.206Z,1736
2022-11-03T14:17:01.186Z,1740
2022-11-03T14:18:02.039Z,1780
2022-11-03T14:19:00.957Z,1824
2022-11-03T14:20:01.147Z,1900
2022-11-03T14:21:04.379Z,1924
2022-11-03T14:22:01.089Z,1872
2022-11-03T14:23:01.081Z,1868
2022-11-03T14:24:00.955Z,1984
2022-11-03T14:25:00.929Z,2128
2022-11-03T14:26:01.040Z,2184
2022-11-03T14:27:02.249Z,2148
2022-11-03T14:28:22.652Z,2008
2022-11-03T14:29:01.233Z,1812
2022-11-03T14:30:01.886Z,1620
2022-11-03T14:31:01.052Z,1480
2022-11-03T14:32:01.200Z,1376